Time;durP1;ratioP1;P1;durP2;ratioP2;P2;SDS_P1;SDS_P2;PMS_P1;PMS_P2;Temp;Humidity;BMP_temperature;BMP_pressure;BME280_temperature;BME280_humidity;BME280_pressure;Samples;Min_cycle;Max_cycle;Signal;HPM_P1;HPM_P2
2024/04/23 00:01:37;;;;;;;;;;;;;;;;;;6326292;22;19952;-82
2024/04/23 00:04:11;;;;;;;;;;;;;;;;;;6286900;22;19924;-82
2024/04/23 00:06:38;;;;;;;;;;;;;;;;;;6284983;22;19995;-82
2024/04/23 00:09:05;;;;;;;;;;;;;;;;;;6326822;22;19960;-82
2024/04/23 00:11:39;;;;;;;;;;;;;;;;;;6326214;22;19924;-81
2024/04/23 00:14:06;;;;;;;;;;;;;;;;;;6327014;22;19924;-82
2024/04/23 00:16:33;;;;;;;;;;;;;;;;;;6285596;22;19936;-82
2024/04/23 00:19:07;;;;;;;;;;;;;;;;;;6325842;22;20245;-81
2024/04/23 00:21:34;;;;;;;;;;;;;;;;;;6325789;22;19936;-81
2024/04/23 00:24:01;;;;;;;;;;;;;;;;;;6327329;22;19924;-81
2024/04/23 00:26:35;;;;;;;;;;;;;;;;;;6325390;22;19951;-81
2024/04/23 00:29:02;;;;;;;;;;;;;;;;;;6326815;22;20421;-81
2024/04/23 00:31:36;;;;;;;;;;;;;;;;;;6326075;22;20000;-81
2024/04/23 00:34:03;;;;;;;;;;;;;;;;;;6326018;22;20409;-82
2024/04/23 00:36:31;;;;;;;;;;;;;;;;;;6326614;22;20002;-81
2024/04/23 00:39:05;;;;;;;;;;;;;;;;;;6287299;22;19924;-81
2024/04/23 00:41:32;;;;;;;;;;;;;;;;;;6325144;22;19999;-81
2024/04/23 00:44:06;;;;;;;;;;;;;;;;;;6326124;22;19924;-82
2024/04/23 00:46:34;;;;;;;;;;;;;;;;;;6327611;22;19924;-82
2024/04/23 00:49:01;;;;;;;;;;;;;;;;;;6326295;22;19924;-81
2024/04/23 00:51:35;;;;;;;;;;;;;;;;;;6286566;22;19931;-81
2024/04/23 00:54:02;;;;;;;;;;;;;;;;;;6326319;22;19960;-82
2024/04/23 00:56:29;;;;;;;;;;;;;;;;;;6326912;22;19969;-82
2024/04/23 00:59:03;;;;;;;;;;;;;;;;;;6328335;22;19924;-82
2024/04/23 01:01:35;;;;;;;;;;;;;;;;;;6326212;22;19936;-82
2024/04/23 01:04:05;;;;;;;;;;;;;;;;;;6325506;22;19995;-82
2024/04/23 01:06:39;;;;;;;;;;;;;;;;;;6326041;22;19924;-82
2024/04/23 01:09:06;;;;;;;;;;;;;;;;;;6325749;22;20291;-81
2024/04/23 01:11:40;;;;;;;;;;;;;;;;;;6325903;22;19993;-82
2024/04/23 01:14:07;;;;;;;;;;;;;;;;;;6327550;22;20349;-82
2024/04/23 01:16:34;;;;;;;;;;;;;;;;;;6284273;22;19973;-82
2024/04/23 01:19:08;;;;;;;;;;;;;;;;;;6326307;22;20006;-82
2024/04/23 01:21:35;;;;;;;;;;;;;;;;;;6282726;22;19924;-82
2024/04/23 01:24:09;;;;;;;;;;;;;;;;;;6326004;22;20315;-82
2024/04/23 01:26:36;;;;;;;;;;;;;;;;;;6325601;22;19924;-81
2024/04/23 01:29:03;;;;;;;;;;;;;;;;;;6327701;22;20342;-81
2024/04/23 01:31:37;;;;;;;;;;;;;;;;;;6325904;22;19924;-81
2024/04/23 01:34:04;;;;;;;;;;;;;;;;;;6326035;22;19976;-81
2024/04/23 01:36:38;;;;;;;;;;;;;;;;;;6325109;22;19923;-80
2024/04/23 01:39:05;;;;;;;;;;;;;;;;;;6326185;22;19924;-82
2024/04/23 01:41:32;;;;;;;;;;;;;;;;;;6283426;22;20000;-81
2024/04/23 01:44:06;;;;;;;;;;;;;;;;;;6326595;22;19996;-81
2024/04/23 01:46:33;;;;;;;;;;;;;;;;;;6325700;22;20277;-81
2024/04/23 01:49:07;;;;;;;;;;;;;;;;;;6324954;22;20415;-81
2024/04/23 01:51:34;;;;;;;;;;;;;;;;;;6284000;22;19936;-81
2024/04/23 01:54:01;;;;;;;;;;;;;;;;;;6324664;22;19932;-81
2024/04/23 01:56:35;;;;;;;;;;;;;;;;;;6325265;22;20020;-83
2024/04/23 01:59:09;;;;;;;;;;;;;;;;;;6327400;22;19943;-81
2024/04/23 02:01:43;;;;;;;;;;;;;;;;;;6325632;22;19951;-81
2024/04/23 02:04:10;;;;;;;;;;;;;;;;;;6326260;22;19968;-81
2024/04/23 02:06:37;;;;;;;;;;;;;;;;;;6283467;22;20000;-81
2024/04/23 02:09:11;;;;;;;;;;;;;;;;;;6285325;22;19924;-80
2024/04/23 02:11:38;;;;;;;;;;;;;;;;;;6325760;22;19930;-81
2024/04/23 02:14:12;;;;;;;;;;;;;;;;;;6327140;22;19964;-81
2024/04/23 02:16:39;;;;;;;;;;;;;;;;;;6316075;22;19924;-81
2024/04/23 02:19:07;;;;;;;;;;;;;;;;;;6323633;22;19951;-81
2024/04/23 02:21:41;;;;;;;;;;;;;;;;;;6325368;22;19996;-81
2024/04/23 02:24:08;;;;;;;;;;;;;;;;;;6326062;22;20007;-80
2024/04/23 02:26:42;;;;;;;;;;;;;;;;;;6326227;22;19923;-81
2024/04/23 02:29:09;;;;;;;;;;;;;;;;;;6327615;22;19999;-81
2024/04/23 02:31:36;;;;;;;;;;;;;;;;;;6326578;22;20239;-80
2024/04/23 02:34:11;;;;;;;;;;;;;;;;;;6327178;22;20330;-81
2024/04/23 02:36:38;;;;;;;;;;;;;;;;;;6329000;22;19960;-81
2024/04/23 02:39:05;;;;;;;;;;;;;;;;;;6326499;22;20000;-81
2024/04/23 02:41:39;;;;;;;;;;;;;;;;;;6285853;22;20298;-81
2024/04/23 02:44:06;;;;;;;;;;;;;;;;;;6327689;22;20338;-81
2024/04/23 02:46:40;;;;;;;;;;;;;;;;;;6285594;22;19932;-81
2024/04/23 02:49:07;;;;;;;;;;;;;;;;;;6325848;22;19936;-81
2024/04/23 02:51:34;;;;;;;;;;;;;;;;;;6324907;22;19995;-81
2024/04/23 02:54:08;;;;;;;;;;;;;;;;;;6324035;22;19995;-81
2024/04/23 02:56:35;;;;;;;;;;;;;;;;;;6324772;22;19923;-81
2024/04/23 02:59:09;;;;;;;;;;;;;;;;;;6287835;22;19923;-81
2024/04/23 03:01:36;;;;;;;;;;;;;;;;;;6283813;22;19934;-81
2024/04/23 03:04:03;;;;;;;;;;;;;;;;;;6328607;22;19931;-81
2024/04/23 03:06:37;;;;;;;;;;;;;;;;;;6327651;22;19924;-79
2024/04/23 03:09:04;;;;;;;;;;;;;;;;;;6284695;22;19923;-81
2024/04/23 03:11:31;;;;;;;;;;;;;;;;;;6285921;22;19924;-81
2024/04/23 03:14:05;;;;;;;;;;;;;;;;;;6328579;22;19930;-81
2024/04/23 03:16:32;;;;;;;;;;;;;;;;;;6328220;22;19924;-81
2024/04/23 03:19:06;;;;;;;;;;;;;;;;;;6288508;22;19924;-81
2024/04/23 03:21:33;;;;;;;;;;;;;;;;;;6327321;22;19936;-81
2024/04/23 03:24:00;;;;;;;;;;;;;;;;;;6284712;22;20717;-81
2024/04/23 03:26:34;;;;;;;;;;;;;;;;;;6288625;22;19932;-80
2024/04/23 03:29:01;;;;;;;;;;;;;;;;;;6328153;22;19996;-80
2024/04/23 03:31:35;;;;;;;;;;;;;;;;;;6287559;22;20710;-81
2024/04/23 03:34:02;;;;;;;;;;;;;;;;;;6327780;22;20342;-80
2024/04/23 03:36:29;;;;;;;;;;;;;;;;;;6327703;22;19924;-81
2024/04/23 03:39:03;;;;;;;;;;;;;;;;;;6326796;22;20394;-81
2024/04/23 03:41:30;;;;;;;;;;;;;;;;;;6327579;22;19923;-81
2024/04/23 03:44:04;;;;;;;;;;;;;;;;;;6327734;22;19924;-81
2024/04/23 03:46:31;;;;;;;;;;;;;;;;;;6327166;22;20505;-80
2024/04/23 03:48:58;;;;;;;;;;;;;;;;;;6327366;22;19991;-82
2024/04/23 03:51:32;;;;;;;;;;;;;;;;;;6328023;22;19935;-80
2024/04/23 03:53:59;;;;;;;;;;;;;;;;;;6415097;22;20384;-61
2024/04/23 03:56:33;;;;;;;;;;;;;;;;;;6469512;22;19989;-61
2024/04/23 03:59:00;;;;;;;;;;;;;;;;;;6467715;22;20745;-61
2024/04/23 04:01:27;;;;;;;;;;;;;;;;;;6466327;22;19952;-61
2024/04/23 04:06:47;;;;;;;;;;;;;;;;;;6466456;22;19993;-61
2024/04/23 04:09:41;;;;;;;;;;;;;;;;;;6466612;22;19993;-59
2024/04/23 04:12:28;;;;;;;;;;;;;;;;;;6468274;22;19993;-62
2024/04/23 04:15:33;;;;;;;;;;;;;;;;;;6468504;22;19922;-62
2024/04/23 04:18:20;;;;;;;;;;;;;;;;;;6465387;22;20421;-61
2024/04/23 04:21:14;;;;;;;;;;;;;;;;;;6468135;22;19923;-61
2024/04/23 04:24:01;;;;;;;;;;;;;;;;;;6466802;22;20735;-61
2024/04/23 04:26:55;;;;;;;;;;;;;;;;;;6466762;22;20253;-61
2024/04/23 04:29:43;;;;;;;;;;;;;;;;;;6457256;22;19992;-59
2024/04/23 04:32:36;;;;;;;;;;;;;;;;;;6468599;22;19929;-60
2024/04/23 04:35:23;;;;;;;;;;;;;;;;;;6469212;22;19922;-60
2024/04/23 04:38:17;;;;;;;;;;;;;;;;;;6465348;22;19930;-60
2024/04/23 04:41:04;;;;;;;;;;;;;;;;;;6465029;22;19930;-60
2024/04/23 04:43:58;;;;;;;;;;;;;;;;;;6464020;22;19997;-60
2024/04/23 04:46:45;;;;;;;;;;;;;;;;;;6465166;22;19984;-59
2024/04/23 04:49:39;;;;;;;;;;;;;;;;;;6464014;22;20232;-52
2024/04/23 04:52:26;;;;;;;;;;;;;;;;;;6465574;22;20306;-50
2024/04/23 04:55:20;;;;;;;;;;;;;;;;;;6367478;22;19935;-48
2024/04/23 04:58:07;;;;;;;;;;;;;;;;;;6368438;22;19935;-52
2024/04/23 05:01:01;;;;;;;;;;;;;;;;;;6367940;22;19935;-51
2024/04/23 05:03:48;;;;;;;;;;;;;;;;;;6368198;22;19935;-54
2024/04/23 05:06:42;;;;;;;;;;;;;;;;;;6367092;22;19984;-63
2024/04/23 05:09:29;;;;;;;;;;;;;;;;;;6367351;22;19995;-63
2024/04/23 05:12:23;;;;;;;;;;;;;;;;;;6367328;22;20241;-63
2024/04/23 05:15:10;;;;;;;;;;;;;;;;;;6367571;22;20422;-62
2024/04/23 05:18:04;;;;;;;;;;;;;;;;;;6368581;22;20000;-63
2024/04/23 05:20:54;;;;;;;;;;;;;;;;;;6368883;22;19935;-63
2024/04/23 05:23:45;;;;;;;;;;;;;;;;;;6370464;22;19995;-59
2024/04/23 05:26:32;;;;;;;;;;;;;;;;;;6370112;22;20022;-55
2024/04/23 05:29:26;;;;;;;;;;;;;;;;;;6369048;22;20110;-51
2024/04/23 05:35:06;;;;;;;;;;;;;;;;;;6367028;22;19924;-53
2024/04/23 05:37:53;;;;;;;;;;;;;;;;;;6367553;22;19923;-50
2024/04/23 05:40:47;;;;;;;;;;;;;;;;;;6368166;22;20012;-64
2024/04/23 05:43:34;;;;;;;;;;;;;;;;;;6367365;22;19924;-59
2024/04/23 05:46:28;;;;;;;;;;;;;;;;;;6368037;22;19951;-64
2024/04/23 05:49:15;;;;;;;;;;;;;;;;;;6366974;22;19924;-65
2024/04/23 05:52:09;;;;;;;;;;;;;;;;;;6366656;22;19930;-64
2024/04/23 05:54:56;;;;;;;;;;;;;;;;;;6461778;22;19929;-65
2024/04/23 05:57:50;;;;;;;;;;;;;;;;;;6467863;22;19923;-64
2024/04/23 06:00:37;;;;;;;;;;;;;;;;;;6467315;22;19922;-63
2024/04/23 06:03:31;;;;;;;;;;;;;;;;;;6467294;22;19935;-63
2024/04/23 06:06:18;;;;;;;;;;;;;;;;;;6467254;22;20346;-62
2024/04/23 06:09:12;;;;;;;;;;;;;;;;;;6467312;22;19922;-61
2024/04/23 06:11:59;;;;;;;;;;;;;;;;;;6469051;22;20009;-61
2024/04/23 06:14:53;;;;;;;;;;;;;;;;;;6468741;22;19922;-60
2024/04/23 06:17:40;;;;;;;;;;;;;;;;;;6469177;22;19922;-59
2024/04/23 06:20:34;;;;;;;;;;;;;;;;;;6468718;22;19929;-59
2024/04/23 06:23:21;;;;;;;;;;;;;;;;;;6467363;22;19970;-59
2024/04/23 06:26:15;;;;;;;;;;;;;;;;;;6466908;22;19993;-60
2024/04/23 06:29:02;;;;;;;;;;;;;;;;;;6467120;22;20425;-60
2024/04/23 06:31:56;;;;;;;;;;;;;;;;;;6467565;22;20339;-60
2024/04/23 06:34:43;;;;;;;;;;;;;;;;;;6466938;22;19923;-60
2024/04/23 06:37:37;;;;;;;;;;;;;;;;;;6467328;22;19929;-60
2024/04/23 06:40:24;;;;;;;;;;;;;;;;;;6467018;22;19929;-60
2024/04/23 06:43:18;;;;;;;;;;;;;;;;;;6466315;22;19933;-59
2024/04/23 06:46:05;;;;;;;;;;;;;;;;;;6467641;22;19934;-60
2024/04/23 06:48:59;;;;;;;;;;;;;;;;;;6469715;22;19928;-60
2024/04/23 06:51:46;;;;;;;;;;;;;;;;;;6469554;22;20394;-60
2024/04/23 06:54:40;;;;;;;;;;;;;;;;;;6465583;22;19994;-63
2024/04/23 06:57:27;;;;;;;;;;;;;;;;;;6468478;22;20334;-63
2024/04/23 07:00:21;;;;;;;;;;;;;;;;;;6470474;22;19934;-62
2024/04/23 07:03:08;;;;;;;;;;;;;;;;;;6470604;22;19946;-62
2024/04/23 07:06:02;;;;;;;;;;;;;;;;;;6470820;22;19934;-62
2024/04/23 07:08:49;;;;;;;;;;;;;;;;;;6471535;22;19932;-62
2024/04/23 07:11:43;;;;;;;;;;;;;;;;;;6471359;22;20001;-61
2024/04/23 07:14:30;;;;;;;;;;;;;;;;;;6467621;22;19993;-61
2024/04/23 07:17:24;;;;;;;;;;;;;;;;;;6469703;22;19934;-63
2024/04/23 07:20:11;;;;;;;;;;;;;;;;;;6468412;22;19922;-62
2024/04/23 07:23:05;;;;;;;;;;;;;;;;;;6468618;22;19934;-63
2024/04/23 07:25:52;;;;;;;;;;;;;;;;;;6468582;22;19930;-62
2024/04/23 07:28:46;;;;;;;;;;;;;;;;;;6469720;22;20322;-62
2024/04/23 07:31:33;;;;;;;;;;;;;;;;;;6468881;22;19934;-60
2024/04/23 07:34:27;;;;;;;;;;;;;;;;;;6467793;22;19950;-63
2024/04/23 07:37:14;;;;;;;;;;;;;;;;;;6468949;22;20369;-63
2024/04/23 07:40:08;;;;;;;;;;;;;;;;;;6468913;22;19934;-62
2024/04/23 07:43:03;;;;;;;;;;;;;;;;;;6467263;22;20005;-63
2024/04/23 07:45:56;;;;;;;;;;;;;;;;;;6469214;22;19989;-63
2024/04/23 07:48:43;;;;;;;;;;;;;;;;;;6468338;22;20520;-63
2024/04/23 07:51:37;;;;;;;;;;;;;;;;;;6469108;22;19922;-60
2024/04/23 07:54:31;;;;;;;;;;;;;;;;;;6465551;22;19922;-49
2024/04/23 07:57:18;;;;;;;;;;;;;;;;;;6470643;22;19929;-53
2024/04/23 08:00:13;;;;;;;;;;;;;;;;;;6470975;22;19922;-47
2024/04/23 08:02:59;;;;;;;;;;;;;;;;;;6469810;22;20382;-48
2024/04/23 08:05:53;;;;;;;;;;;;;;;;;;6469315;22;19933;-51
2024/04/23 08:08:40;;;;;;;;;;;;;;;;;;6468215;22;19923;-61
2024/04/23 08:11:34;;;;;;;;;;;;;;;;;;6467449;22;20496;-47
2024/04/23 08:14:21;;;;;;;;;;;;;;;;;;6468008;22;19922;-47
2024/04/23 08:17:15;;;;;;;;;;;;;;;;;;6467639;22;19993;-45
2024/04/23 08:20:02;;;;;;;;;;;;;;;;;;6468661;22;19926;-47
2024/04/23 08:22:56;;;;;;;;;;;;;;;;;;6467473;22;19923;-49
2024/04/23 08:25:43;;;;;;;;;;;;;;;;;;6469317;22;19934;-47
2024/04/23 08:28:37;;;;;;;;;;;;;;;;;;6468052;22;20003;-47
2024/04/23 08:31:24;;;;;;;;;;;;;;;;;;6467431;22;19922;-60
2024/04/23 08:34:18;;;;;;;;;;;;;;;;;;6467290;22;19933;-60
2024/04/23 08:37:05;;;;;;;;;;;;;;;;;;6468844;22;20236;-59
2024/04/23 08:39:59;;;;;;;;;;;;;;;;;;6468946;22;19923;-59
2024/04/23 08:42:53;;;;;;;;;;;;;;;;;;6467171;22;19993;-60
2024/04/23 08:45:40;;;;;;;;;;;;;;;;;;6469424;22;20345;-61
2024/04/23 08:48:34;;;;;;;;;;;;;;;;;;6468844;22;20468;-61
2024/04/23 08:51:21;;;;;;;;;;;;;;;;;;6470847;22;19992;-61
2024/04/23 08:54:15;;;;;;;;;;;;;;;;;;6466789;22;19922;-61
2024/04/23 08:57:02;;;;;;;;;;;;;;;;;;6469208;22;19922;-61
2024/04/23 08:59:56;;;;;;;;;;;;;;;;;;6469069;22;19965;-61
2024/04/23 09:02:43;;;;;;;;;;;;;;;;;;6467846;22;20405;-61
2024/04/23 09:05:37;;;;;;;;;;;;;;;;;;6467374;22;19934;-61
2024/04/23 09:08:24;;;;;;;;;;;;;;;;;;6467961;22;19922;-60
2024/04/23 09:11:18;;;;;;;;;;;;;;;;;;6467134;22;19922;-59
2024/04/23 09:14:05;;;;;;;;;;;;;;;;;;6469223;22;19923;-60
2024/04/23 09:16:59;;;;;;;;;;;;;;;;;;6468543;22;19992;-60
2024/04/23 09:19:46;;;;;;;;;;;;;;;;;;6467266;22;19922;-60
2024/04/23 09:22:40;;;;;;;;;;;;;;;;;;6467457;22;20082;-58
2024/04/23 09:25:27;;;;;;;;;;;;;;;;;;6466937;22;19923;-61
2024/04/23 09:28:21;;;;;;;;;;;;;;;;;;6467706;22;19946;-61
2024/04/23 09:31:15;;;;;;;;;;;;;;;;;;6468163;22;20384;-60
2024/04/23 09:34:04;;;;;;;;;;;;;;;;;;6468057;22;19941;-61
2024/04/23 09:36:49;;;;;;;;;;;;;;;;;;6466604;22;19934;-61
2024/04/23 09:39:43;;;;;;;;;;;;;;;;;;6468654;22;19992;-58
2024/04/23 09:42:30;;;;;;;;;;;;;;;;;;6469676;22;20318;-59
2024/04/23 09:45:24;;;;;;;;;;;;;;;;;;6470267;22;20347;-51
2024/04/23 09:48:12;;;;;;;;;;;;;;;;;;6468872;22;19993;-50
2024/04/23 09:51:05;;;;;;;;;;;;;;;;;;6468728;22;19923;-50
2024/04/23 09:53:53;;;;;;;;;;;;;;;;;;6464444;22;19934;-47
2024/04/23 09:56:46;;;;;;;;;;;;;;;;;;6466561;22;19922;-47
2024/04/23 09:59:40;;;;;;;;;;;;;;;;;;6467864;22;19922;-60
2024/04/23 10:02:34;;;;;;;;;;;;;;;;;;6466849;22;19922;-60
2024/04/23 10:05:21;;;;;;;;;;;;;;;;;;6467031;22;20382;-59
2024/04/23 10:08:15;;;;;;;;;;;;;;;;;;6467205;22;19946;-59
2024/04/23 10:11:02;;;;;;;;;;;;;;;;;;6467784;22;19951;-59
2024/04/23 10:13:56;;;;;;;;;;;;;;;;;;6466973;22;20353;-60
2024/04/23 10:16:43;;;;;;;;;;;;;;;;;;6466771;22;19954;-47
2024/04/23 10:19:37;;;;;;;;;;;;;;;;;;6467486;22;19923;-64
2024/04/23 10:22:24;;;;;;;;;;;;;;;;;;6467331;22;20355;-56
2024/04/23 10:25:18;;;;;;;;;;;;;;;;;;6466357;22;19934;-57
2024/04/23 10:28:05;;;;;;;;;;;;;;;;;;6466963;22;19922;-58
2024/04/23 10:30:59;;;;;;;;;;;;;;;;;;6468460;22;19934;-58
2024/04/23 10:33:46;;;;;;;;;;;;;;;;;;6468571;22;20015;-59
2024/04/23 10:36:40;;;;;;;;;;;;;;;;;;6469760;22;19922;-57
2024/04/23 10:39:27;;;;;;;;;;;;;;;;;;6469553;22;19997;-62
2024/04/23 10:42:21;;;;;;;;;;;;;;;;;;6468815;22;19993;-62
2024/04/23 10:45:08;;;;;;;;;;;;;;;;;;6467573;22;19966;-61
2024/04/23 10:48:02;;;;;;;;;;;;;;;;;;6466805;22;19997;-62
2024/04/23 10:50:49;;;;;;;;;;;;;;;;;;6467535;22;19922;-62
2024/04/23 10:53:43;;;;;;;;;;;;;;;;;;6464184;22;19922;-59
2024/04/23 10:56:35;;;;;;;;;;;;;;;;;;6466418;22;19922;-60
2024/04/23 10:59:26;;;;;;;;;;;;;;;;;;6467287;22;19929;-59
2024/04/23 11:02:14;;;;;;;;;;;;;;;;;;6466551;22;19993;-60
2024/04/23 11:05:07;;;;;;;;;;;;;;;;;;6467125;22;19949;-60
2024/04/23 11:07:54;;;;;;;;;;;;;;;;;;6467493;22;19922;-60
2024/04/23 11:10:48;;;;;;;;;;;;;;;;;;6465910;22;19923;-59
2024/04/23 11:13:42;;;;;;;;;;;;;;;;;;6466584;22;20235;-60
2024/04/23 11:16:36;;;;;;;;;;;;;;;;;;6466630;22;19934;-60
2024/04/23 11:19:30;;;;;;;;;;;;;;;;;;6465972;22;19922;-60
2024/04/23 11:22:24;;;;;;;;;;;;;;;;;;6467247;22;19950;-61
2024/04/23 11:25:11;;;;;;;;;;;;;;;;;;6466571;22;19922;-60
2024/04/23 11:28:05;;;;;;;;;;;;;;;;;;6467796;22;20278;-61
2024/04/23 11:30:56;;;;;;;;;;;;;;;;;;6469133;22;19922;-58
2024/04/23 11:33:46;;;;;;;;;;;;;;;;;;6470066;22;19922;-58
2024/04/23 11:36:33;;;;;;;;;;;;;;;;;;6469082;22;19935;-60
2024/04/23 11:39:27;;;;;;;;;;;;;;;;;;6470137;22;19934;-58
2024/04/23 11:42:14;;;;;;;;;;;;;;;;;;6468585;22;19922;-59
2024/04/23 11:45:08;;;;;;;;;;;;;;;;;;6469020;22;19922;-59
2024/04/23 11:47:55;;;;;;;;;;;;;;;;;;6468419;22;20001;-59
2024/04/23 11:50:49;;;;;;;;;;;;;;;;;;6468832;22;19923;-59
2024/04/23 11:53:36;;;;;;;;;;;;;;;;;;6464192;22;19927;-63
2024/04/23 11:56:30;;;;;;;;;;;;;;;;;;6467444;22;20007;-63
2024/04/23 11:59:19;;;;;;;;;;;;;;;;;;6469309;22;20000;-63
2024/04/23 12:02:11;;;;;;;;;;;;;;;;;;6468740;22;20228;-63
2024/04/23 12:04:58;;;;;;;;;;;;;;;;;;6468512;22;19922;-63
2024/04/23 12:07:52;;;;;;;;;;;;;;;;;;6467590;22;19946;-51
2024/04/23 12:10:46;;;;;;;;;;;;;;;;;;6468505;22;19936;-63
2024/04/23 12:13:40;;;;;;;;;;;;;;;;;;6467833;22;19922;-63
2024/04/23 12:16:27;;;;;;;;;;;;;;;;;;6467946;22;19954;-63
2024/04/23 12:19:21;;;;;;;;;;;;;;;;;;6468032;22;19922;-64
2024/04/23 12:22:08;;;;;;;;;;;;;;;;;;6470214;22;19922;-62
2024/04/23 12:25:02;;;;;;;;;;;;;;;;;;6468772;22;19993;-58
2024/04/23 12:27:49;;;;;;;;;;;;;;;;;;6471444;22;19922;-59
2024/04/23 12:30:50;;;;;;;;;;;;;;;;;;6468950;22;19922;-59
2024/04/23 12:33:44;;;;;;;;;;;;;;;;;;6470081;22;19922;-59
2024/04/23 12:36:38;;;;;;;;;;;;;;;;;;6468447;22;19934;-59
2024/04/23 12:39:32;;;;;;;;;;;;;;;;;;6467679;22;19970;-58
2024/04/23 12:42:26;;;;;;;;;;;;;;;;;;6467788;22;19922;-59
2024/04/23 12:45:13;;;;;;;;;;;;;;;;;;6467329;22;20001;-59
2024/04/23 12:48:07;;;;;;;;;;;;;;;;;;6468338;22;19941;-59
2024/04/23 12:50:54;;;;;;;;;;;;;;;;;;6468471;22;19989;-60
2024/04/23 12:53:48;;;;;;;;;;;;;;;;;;6464529;22;19929;-59
2024/04/23 12:56:42;;;;;;;;;;;;;;;;;;6468477;22;19922;-59
2024/04/23 12:59:37;;;;;;;;;;;;;;;;;;6467656;22;19992;-60
2024/04/23 13:02:23;;;;;;;;;;;;;;;;;;6467396;22;19922;-49
2024/04/23 13:05:17;;;;;;;;;;;;;;;;;;6467586;22;19922;-60
2024/04/23 13:08:05;;;;;;;;;;;;;;;;;;6466604;22;19935;-60
2024/04/23 13:10:58;;;;;;;;;;;;;;;;;;6467686;22;19930;-59
2024/04/23 13:13:45;;;;;;;;;;;;;;;;;;6468028;22;19930;-60
2024/04/23 13:16:39;;;;;;;;;;;;;;;;;;6467034;22;19923;-61
2024/04/23 13:19:26;;;;;;;;;;;;;;;;;;6469062;22;19922;-60
2024/04/23 13:22:25;;;;;;;;;;;;;;;;;;6468755;22;19922;-63
2024/04/23 13:25:13;;;;;;;;;;;;;;;;;;6469144;22;19938;-60
2024/04/23 13:28:06;;;;;;;;;;;;;;;;;;6469921;22;19922;-60
2024/04/23 13:30:53;;;;;;;;;;;;;;;;;;6469361;22;19922;-60
2024/04/23 13:33:47;;;;;;;;;;;;;;;;;;6468654;22;19989;-60
2024/04/23 13:36:34;;;;;;;;;;;;;;;;;;6466306;22;20402;-60
2024/04/23 13:39:28;;;;;;;;;;;;;;;;;;6467337;22;19922;-61
2024/04/23 13:42:22;;;;;;;;;;;;;;;;;;6468182;22;19923;-52
2024/04/23 13:45:09;;;;;;;;;;;;;;;;;;6466749;22;19923;-50
2024/04/23 13:48:03;;;;;;;;;;;;;;;;;;6468211;22;19922;-47
2024/04/23 13:50:50;;;;;;;;;;;;;;;;;;6466739;22;19970;-48
2024/04/23 13:53:44;;;;;;;;;;;;;;;;;;6464324;22;20339;-45
2024/04/23 13:56:31;;;;;;;;;;;;;;;;;;6467385;22;19934;-46
2024/04/23 13:59:25;;;;;;;;;;;;;;;;;;6467467;22;19922;-46
2024/04/23 14:02:12;;;;;;;;;;;;;;;;;;6467928;22;19927;-49
2024/04/23 14:05:06;;;;;;;;;;;;;;;;;;6466531;22;19923;-48
2024/04/23 14:07:53;;;;;;;;;;;;;;;;;;6466607;22;20350;-48
2024/04/23 14:10:47;;;;;;;;;;;;;;;;;;6467863;22;19922;-47
2024/04/23 14:13:34;;;;;;;;;;;;;;;;;;6467492;22;20000;-47
2024/04/23 14:16:28;;;;;;;;;;;;;;;;;;6469034;22;19929;-59
2024/04/23 14:19:15;;;;;;;;;;;;;;;;;;6466554;22;19922;-63
2024/04/23 14:22:09;;;;;;;;;;;;;;;;;;6466720;22;19922;-62
2024/04/23 14:24:56;;;;;;;;;;;;;;;;;;6465191;22;19934;-63
2024/04/23 14:27:51;;;;;;;;;;;;;;;;;;6464959;22;20240;-63
2024/04/23 14:30:45;;;;;;;;;;;;;;;;;;6463014;22;19929;-63
2024/04/23 14:33:43;;;;;;;;;;;;;;;;;;6464220;22;19935;-60
2024/04/23 14:36:27;;;;;;;;;;;;;;;;;;6462638;22;19950;-64
2024/04/23 14:39:21;;;;;;;;;;;;;;;;;;6465287;22;19993;-63
2024/04/23 14:42:08;;;;;;;;;;;;;;;;;;6466312;22;19949;-63
2024/04/23 14:45:02;;;;;;;;;;;;;;;;;;6464621;22;19951;-63
2024/04/23 14:47:51;;;;;;;;;;;;;;;;;;6465145;22;19970;-62
2024/04/23 14:50:43;;;;;;;;;;;;;;;;;;6462343;22;19922;-63
2024/04/23 14:53:30;;;;;;;;;;;;;;;;;;6465335;22;19934;-47
2024/04/23 14:56:24;;;;;;;;;;;;;;;;;;6363186;22;19995;-60
2024/04/23 14:59:11;;;;;;;;;;;;;;;;;;6362121;22;20310;-59
2024/04/23 15:02:05;;;;;;;;;;;;;;;;;;6364466;22;19935;-58
2024/04/23 15:04:52;;;;;;;;;;;;;;;;;;6363154;22;20126;-58
2024/04/23 15:07:49;;;;;;;;;;;;;;;;;;6364888;22;19923;-59
2024/04/23 15:10:42;;;;;;;;;;;;;;;;;;6370707;22;19924;-64
2024/04/23 15:13:36;;;;;;;;;;;;;;;;;;6370699;22;19934;-59
2024/04/23 15:16:23;;;;;;;;;;;;;;;;;;6370895;22;19929;-64
2024/04/23 15:19:17;;;;;;;;;;;;;;;;;;6370297;22;19991;-64
2024/04/23 15:22:04;;;;;;;;;;;;;;;;;;6369247;22;19947;-62
2024/04/23 15:24:58;;;;;;;;;;;;;;;;;;6368143;22;19999;-63
2024/04/23 15:27:45;;;;;;;;;;;;;;;;;;6365108;22;19935;-62
2024/04/23 15:30:39;;;;;;;;;;;;;;;;;;6367324;22;19923;-57
2024/04/23 15:33:26;;;;;;;;;;;;;;;;;;6368902;22;19935;-58
2024/04/23 15:36:20;;;;;;;;;;;;;;;;;;6368667;22;19993;-57
2024/04/23 15:39:07;;;;;;;;;;;;;;;;;;6369270;22;19936;-56
2024/04/23 15:42:02;;;;;;;;;;;;;;;;;;6366323;22;19931;-58
2024/04/23 15:44:48;;;;;;;;;;;;;;;;;;6366648;22;20760;-58
2024/04/23 15:47:42;;;;;;;;;;;;;;;;;;6368315;22;19952;-57
2024/04/23 15:50:29;;;;;;;;;;;;;;;;;;6364401;22;19931;-61
2024/04/23 15:53:23;;;;;;;;;;;;;;;;;;6364818;22;19975;-59
2024/04/23 15:56:10;;;;;;;;;;;;;;;;;;6463643;22;19997;-60
2024/04/23 15:59:04;;;;;;;;;;;;;;;;;;6466207;22;20421;-60
2024/04/23 16:01:51;;;;;;;;;;;;;;;;;;6469493;22;20239;-61
2024/04/23 16:04:45;;;;;;;;;;;;;;;;;;6464826;22;19940;-60
2024/04/23 16:07:32;;;;;;;;;;;;;;;;;;6431227;22;21520;-58
2024/04/23 16:10:26;;;;;;;;;;;;;;;;;;6459868;22;19933;-52
2024/04/23 16:13:13;;;;;;;;;;;;;;;;;;6515936;22;19951;-49
2024/04/23 16:16:15;;;;;;;;;;;;;;;;;;6512702;22;19922;-50
2024/04/23 16:19:02;;;;;;;;;;;;;;;;;;6517838;22;19933;-50
2024/04/23 16:21:55;;;;;;;;;;;;;;;;;;6516880;22;20575;-48
2024/04/23 16:24:42;;;;;;;;;;;;;;;;;;6515420;22;19922;-60
2024/04/23 16:27:36;;;;;;;;;;;;;;;;;;6490849;22;22794;-60
2024/04/23 16:30:23;;;;;;;;;;;;;;;;;;5359759;22;10000625;-60
2024/04/23 16:33:17;;;;;;;;;;;;;;;;;;6468215;22;20679;-60
2024/04/23 16:36:05;;;;;;;;;;;;;;;;;;6447285;22;19997;-60
2024/04/23 16:38:59;;;;;;;;;;;;;;;;;;6407442;22;19931;-60
2024/04/23 16:41:49;;;;;;;;;;;;;;;;;;6458815;22;20344;-60
2024/04/23 16:44:43;;;;;;;;;;;;;;;;;;6461781;22;19997;-61
2024/04/23 16:47:30;;;;;;;;;;;;;;;;;;6438174;22;19928;-56
2024/04/23 16:50:24;;;;;;;;;;;;;;;;;;6364300;22;21223;-54
2024/04/23 16:53:11;;;;;;;;;;;;;;;;;;6413914;22;20344;-55
2024/04/23 16:56:12;;;;;;;;;;;;;;;;;;6411911;22;20232;-50
2024/04/23 16:58:59;;;;;;;;;;;;;;;;;;5296791;22;10000570;-56
2024/04/23 17:01:53;;;;;;;;;;;;;;;;;;6416688;22;20311;-59
2024/04/23 17:04:42;;;;;;;;;;;;;;;;;;6415068;22;19935;-50
2024/04/23 17:07:34;;;;;;;;;;;;;;;;;;6414759;22;20347;-48
2024/04/23 17:10:24;;;;;;;;;;;;;;;;;;6406062;22;20347;-48
2024/04/23 17:13:20;;;;;;;;;;;;;;;;;;6400048;22;19929;-46
2024/04/23 17:16:05;;;;;;;;;;;;;;;;;;6415441;22;19931;-50
2024/04/23 17:18:59;;;;;;;;;;;;;;;;;;6415821;22;19922;-48
2024/04/23 17:21:46;;;;;;;;;;;;;;;;;;6380250;22;19923;-59
2024/04/23 17:30:11;;;;;;;;;;;;;;;;;;6458584;22;19923;-62
2024/04/23 17:32:38;;;;;;;;;;;;;;;;;;6462465;22;19966;-62
2024/04/23 17:35:12;;;;;;;;;;;;;;;;;;6460767;22;20300;-63
2024/04/23 17:37:51;;;;;;;;;;;;;;;;;;6449431;22;19922;-62
2024/04/23 17:40:19;;;;;;;;;;;;;;;;;;5313680;22;10000174;-62
2024/04/23 17:42:46;;;;;;;;;;;;;;;;;;6463824;22;20306;-46
2024/04/23 17:45:20;;;;;;;;;;;;;;;;;;6404052;22;22827;-60
2024/04/23 17:47:47;;;;;;;;;;;;;;;;;;6411362;22;19999;-51
2024/04/23 17:50:15;;;;;;;;;;;;;;;;;;6409576;22;19923;-52
2024/04/23 17:52:49;;;;;;;;;;;;;;;;;;6414549;22;20322;-52
2024/04/23 17:55:19;;;;;;;;;;;;;;;;;;6413455;22;19963;-53
2024/04/23 17:57:53;;;;;;;;;;;;;;;;;;6412115;22;20449;-48
2024/04/23 18:00:21;;;;;;;;;;;;;;;;;;6389526;22;20326;-48
2024/04/23 18:02:49;;;;;;;;;;;;;;;;;;6409655;22;20045;-46
2024/04/23 18:05:22;;;;;;;;;;;;;;;;;;6413144;22;19962;-57
2024/04/23 18:07:50;;;;;;;;;;;;;;;;;;6414580;22;19923;-59
2024/04/23 18:10:23;;;;;;;;;;;;;;;;;;6414768;22;19941;-58
2024/04/23 18:12:50;;;;;;;;;;;;;;;;;;6414558;22;19929;-59
2024/04/23 18:15:18;;;;;;;;;;;;;;;;;;6414265;22;19935;-59
2024/04/23 18:17:51;;;;;;;;;;;;;;;;;;6414266;22;19935;-58
2024/04/23 18:20:22;;;;;;;;;;;;;;;;;;6415290;22;19923;-47
2024/04/23 18:22:56;;;;;;;;;;;;;;;;;;6414056;22;20302;-49
2024/04/23 18:25:23;;;;;;;;;;;;;;;;;;6415115;22;20384;-49
2024/04/23 18:27:50;;;;;;;;;;;;;;;;;;6412090;22;19923;-49
2024/04/23 18:30:24;;;;;;;;;;;;;;;;;;6414253;22;19931;-59
2024/04/23 18:32:51;;;;;;;;;;;;;;;;;;6410546;22;20086;-57
2024/04/23 18:35:26;;;;;;;;;;;;;;;;;;6414595;22;19951;-59
2024/04/23 18:37:53;;;;;;;;;;;;;;;;;;6413386;22;20314;-58
2024/04/23 18:40:20;;;;;;;;;;;;;;;;;;6414989;22;19978;-59
2024/04/23 18:42:54;;;;;;;;;;;;;;;;;;6393497;22;20119;-59
2024/04/23 18:45:21;;;;;;;;;;;;;;;;;;6411692;22;19923;-61
2024/04/23 18:47:56;;;;;;;;;;;;;;;;;;6414274;22;19923;-61
2024/04/23 18:50:24;;;;;;;;;;;;;;;;;;6411358;22;19990;-61
2024/04/23 18:52:51;;;;;;;;;;;;;;;;;;6411508;22;20379;-61